Airport METAR Information

LTBA 141020Z 05013KT 020V080 CAVOK 29/10 Q1014 NOSIG

VATSIM Livefeed

Card image cap

ATC Bookings

No position booked

Card image cap

Active ATC

No controllers online

Blog

Read our latest news and get to know us better.